sensor_id;sensor_type;location;lat;lon;timestamp;P1;durP1;ratioP1;P2;durP2;ratioP2
68256;SDS011;55069;51.568;4.656;2024-02-23T00:01:48;6.97;;;1.20;;
68256;SDS011;55069;51.568;4.656;2024-02-23T00:04:14;5.37;;;1.47;;
68256;SDS011;55069;51.568;4.656;2024-02-23T00:06:39;7.60;;;1.33;;
68256;SDS011;55069;51.568;4.656;2024-02-23T00:09:05;6.00;;;1.63;;
68256;SDS011;55069;51.568;4.656;2024-02-23T00:11:30;9.07;;;1.13;;
68256;SDS011;55069;51.568;4.656;2024-02-23T00:13:58;4.07;;;0.80;;
68256;SDS011;55069;51.568;4.656;2024-02-23T00:16:24;4.90;;;0.98;;
68256;SDS011;55069;51.568;4.656;2024-02-23T00:18:51;8.88;;;1.60;;
68256;SDS011;55069;51.568;4.656;2024-02-23T00:21:17;12.07;;;1.30;;
68256;SDS011;55069;51.568;4.656;2024-02-23T00:23:42;8.70;;;1.67;;
68256;SDS011;55069;51.568;4.656;2024-02-23T00:26:08;9.43;;;2.13;;
68256;SDS011;55069;51.568;4.656;2024-02-23T00:28:33;12.15;;;1.83;;
68256;SDS011;55069;51.568;4.656;2024-02-23T00:30:59;15.00;;;2.97;;
68256;SDS011;55069;51.568;4.656;2024-02-23T00:33:24;14.87;;;3.37;;
68256;SDS011;55069;51.568;4.656;2024-02-23T00:35:50;16.73;;;4.47;;
68256;SDS011;55069;51.568;4.656;2024-02-23T00:38:15;11.32;;;3.92;;
68256;SDS011;55069;51.568;4.656;2024-02-23T00:40:41;10.52;;;3.63;;
68256;SDS011;55069;51.568;4.656;2024-02-23T00:43:06;16.17;;;4.30;;
68256;SDS011;55069;51.568;4.656;2024-02-23T00:45:32;11.33;;;3.27;;
68256;SDS011;55069;51.568;4.656;2024-02-23T00:47:57;9.48;;;2.85;;
68256;SDS011;55069;51.568;4.656;2024-02-23T00:50:24;11.83;;;2.57;;
68256;SDS011;55069;51.568;4.656;2024-02-23T00:52:51;11.18;;;3.67;;
68256;SDS011;55069;51.568;4.656;2024-02-23T00:55:17;11.18;;;3.40;;
68256;SDS011;55069;51.568;4.656;2024-02-23T00:57:43;12.30;;;3.33;;
68256;SDS011;55069;51.568;4.656;2024-02-23T01:00:09;10.00;;;3.13;;
68256;SDS011;55069;51.568;4.656;2024-02-23T01:02:35;13.98;;;3.30;;
68256;SDS011;55069;51.568;4.656;2024-02-23T01:05:00;6.47;;;2.67;;
68256;SDS011;55069;51.568;4.656;2024-02-23T01:07:26;9.27;;;2.20;;
68256;SDS011;55069;51.568;4.656;2024-02-23T01:09:51;12.38;;;2.60;;
68256;SDS011;55069;51.568;4.656;2024-02-23T01:12:17;8.20;;;1.88;;
68256;SDS011;55069;51.568;4.656;2024-02-23T01:14:42;8.53;;;1.90;;
68256;SDS011;55069;51.568;4.656;2024-02-23T01:17:08;9.63;;;1.35;;
68256;SDS011;55069;51.568;4.656;2024-02-23T01:19:33;5.43;;;1.17;;
68256;SDS011;55069;51.568;4.656;2024-02-23T01:21:59;9.07;;;1.83;;
68256;SDS011;55069;51.568;4.656;2024-02-23T01:24:28;9.73;;;1.70;;
68256;SDS011;55069;51.568;4.656;2024-02-23T01:26:54;9.52;;;1.45;;
68256;SDS011;55069;51.568;4.656;2024-02-23T01:29:21;5.80;;;1.30;;
68256;SDS011;55069;51.568;4.656;2024-02-23T01:31:47;10.50;;;1.50;;
68256;SDS011;55069;51.568;4.656;2024-02-23T01:34:13;6.75;;;1.38;;
68256;SDS011;55069;51.568;4.656;2024-02-23T01:36:39;6.60;;;1.27;;
68256;SDS011;55069;51.568;4.656;2024-02-23T01:39:05;13.23;;;1.13;;
68256;SDS011;55069;51.568;4.656;2024-02-23T01:41:30;7.05;;;1.13;;
68256;SDS011;55069;51.568;4.656;2024-02-23T01:43:57;7.20;;;1.23;;
68256;SDS011;55069;51.568;4.656;2024-02-23T01:46:23;7.78;;;2.50;;
68256;SDS011;55069;51.568;4.656;2024-02-23T01:48:48;13.40;;;1.33;;
68256;SDS011;55069;51.568;4.656;2024-02-23T01:51:14;10.07;;;1.17;;
68256;SDS011;55069;51.568;4.656;2024-02-23T01:53:39;8.57;;;1.00;;
68256;SDS011;55069;51.568;4.656;2024-02-23T01:56:05;9.07;;;0.70;;
68256;SDS011;55069;51.568;4.656;2024-02-23T01:58:32;10.75;;;1.00;;
68256;SDS011;55069;51.568;4.656;2024-02-23T02:01:00;8.07;;;1.50;;
68256;SDS011;55069;51.568;4.656;2024-02-23T02:03:26;10.27;;;1.20;;
68256;SDS011;55069;51.568;4.656;2024-02-23T02:05:51;4.27;;;0.73;;
68256;SDS011;55069;51.568;4.656;2024-02-23T02:08:18;11.38;;;0.82;;
68256;SDS011;55069;51.568;4.656;2024-02-23T02:10:45;11.18;;;0.80;;
68256;SDS011;55069;51.568;4.656;2024-02-23T02:13:12;9.43;;;1.17;;
68256;SDS011;55069;51.568;4.656;2024-02-23T02:15:37;10.43;;;0.70;;
68256;SDS011;55069;51.568;4.656;2024-02-23T02:18:04;6.13;;;0.60;;
68256;SDS011;55069;51.568;4.656;2024-02-23T02:20:32;7.90;;;0.60;;
68256;SDS011;55069;51.568;4.656;2024-02-23T02:22:58;4.75;;;0.80;;
68256;SDS011;55069;51.568;4.656;2024-02-23T02:25:24;8.95;;;0.60;;
68256;SDS011;55069;51.568;4.656;2024-02-23T02:27:49;12.83;;;0.80;;
68256;SDS011;55069;51.568;4.656;2024-02-23T02:30:15;7.30;;;0.70;;
68256;SDS011;55069;51.568;4.656;2024-02-23T02:32:40;7.10;;;1.02;;
68256;SDS011;55069;51.568;4.656;2024-02-23T02:35:06;10.90;;;1.10;;
68256;SDS011;55069;51.568;4.656;2024-02-23T02:37:32;9.00;;;1.08;;
68256;SDS011;55069;51.568;4.656;2024-02-23T02:39:58;8.50;;;1.07;;
68256;SDS011;55069;51.568;4.656;2024-02-23T02:42:23;11.23;;;1.27;;
68256;SDS011;55069;51.568;4.656;2024-02-23T02:44:49;7.93;;;1.13;;
68256;SDS011;55069;51.568;4.656;2024-02-23T02:47:14;7.90;;;0.97;;
68256;SDS011;55069;51.568;4.656;2024-02-23T02:49:40;9.10;;;0.90;;
68256;SDS011;55069;51.568;4.656;2024-02-23T02:52:05;5.22;;;0.85;;
68256;SDS011;55069;51.568;4.656;2024-02-23T02:54:31;7.70;;;1.00;;
68256;SDS011;55069;51.568;4.656;2024-02-23T02:56:56;11.33;;;1.33;;
68256;SDS011;55069;51.568;4.656;2024-02-23T02:59:23;7.30;;;1.07;;
68256;SDS011;55069;51.568;4.656;2024-02-23T03:01:48;8.20;;;0.60;;
68256;SDS011;55069;51.568;4.656;2024-02-23T03:04:14;8.70;;;1.07;;
68256;SDS011;55069;51.568;4.656;2024-02-23T03:06:40;4.47;;;0.73;;
68256;SDS011;55069;51.568;4.656;2024-02-23T03:09:05;3.83;;;0.70;;
68256;SDS011;55069;51.568;4.656;2024-02-23T03:11:32;5.22;;;1.00;;
68256;SDS011;55069;51.568;4.656;2024-02-23T03:13:58;4.88;;;0.82;;
68256;SDS011;55069;51.568;4.656;2024-02-23T03:16:23;8.23;;;1.10;;
68256;SDS011;55069;51.568;4.656;2024-02-23T03:18:51;5.05;;;0.50;;
68256;SDS011;55069;51.568;4.656;2024-02-23T03:21:17;10.03;;;0.90;;
68256;SDS011;55069;51.568;4.656;2024-02-23T03:23:42;7.95;;;0.95;;
68256;SDS011;55069;51.568;4.656;2024-02-23T03:26:08;6.83;;;1.07;;
68256;SDS011;55069;51.568;4.656;2024-02-23T03:28:33;10.57;;;0.83;;
68256;SDS011;55069;51.568;4.656;2024-02-23T03:31:00;6.53;;;1.00;;
68256;SDS011;55069;51.568;4.656;2024-02-23T03:33:26;9.57;;;1.70;;
68256;SDS011;55069;51.568;4.656;2024-02-23T03:35:51;8.45;;;1.00;;
68256;SDS011;55069;51.568;4.656;2024-02-23T03:38:17;10.00;;;1.20;;
68256;SDS011;55069;51.568;4.656;2024-02-23T03:40:42;8.87;;;1.10;;
68256;SDS011;55069;51.568;4.656;2024-02-23T03:43:08;13.13;;;1.52;;
68256;SDS011;55069;51.568;4.656;2024-02-23T03:45:34;5.17;;;0.97;;
68256;SDS011;55069;51.568;4.656;2024-02-23T03:47:59;22.57;;;1.77;;
68256;SDS011;55069;51.568;4.656;2024-02-23T03:50:25;9.00;;;1.40;;
68256;SDS011;55069;51.568;4.656;2024-02-23T03:52:50;7.27;;;1.20;;
68256;SDS011;55069;51.568;4.656;2024-02-23T03:55:16;8.27;;;1.77;;
68256;SDS011;55069;51.568;4.656;2024-02-23T03:57:41;10.47;;;1.70;;
68256;SDS011;55069;51.568;4.656;2024-02-23T04:00:07;5.82;;;1.63;;
68256;SDS011;55069;51.568;4.656;2024-02-23T04:02:40;9.73;;;1.83;;
68256;SDS011;55069;51.568;4.656;2024-02-23T04:05:06;11.55;;;2.03;;
68256;SDS011;55069;51.568;4.656;2024-02-23T04:07:32;7.33;;;1.93;;
68256;SDS011;55069;51.568;4.656;2024-02-23T04:09:57;10.18;;;1.88;;
68256;SDS011;55069;51.568;4.656;2024-02-23T04:12:23;9.50;;;1.87;;
68256;SDS011;55069;51.568;4.656;2024-02-23T04:14:49;10.52;;;2.10;;
68256;SDS011;55069;51.568;4.656;2024-02-23T04:17:15;8.30;;;1.87;;
68256;SDS011;55069;51.568;4.656;2024-02-23T04:19:41;13.02;;;1.90;;
68256;SDS011;55069;51.568;4.656;2024-02-23T04:22:07;8.23;;;1.50;;
68256;SDS011;55069;51.568;4.656;2024-02-23T04:24:39;11.03;;;2.40;;
68256;SDS011;55069;51.568;4.656;2024-02-23T04:27:06;11.80;;;2.30;;
68256;SDS011;55069;51.568;4.656;2024-02-23T04:29:31;11.05;;;2.42;;
68256;SDS011;55069;51.568;4.656;2024-02-23T04:31:58;14.87;;;2.87;;
68256;SDS011;55069;51.568;4.656;2024-02-23T04:34:24;12.65;;;2.22;;
68256;SDS011;55069;51.568;4.656;2024-02-23T04:36:50;9.05;;;2.08;;
68256;SDS011;55069;51.568;4.656;2024-02-23T04:39:15;10.50;;;2.03;;
68256;SDS011;55069;51.568;4.656;2024-02-23T04:41:41;8.90;;;1.83;;
68256;SDS011;55069;51.568;4.656;2024-02-23T04:44:06;10.63;;;2.07;;
68256;SDS011;55069;51.568;4.656;2024-02-23T04:46:32;12.93;;;2.30;;
68256;SDS011;55069;51.568;4.656;2024-02-23T04:48:59;10.55;;;2.05;;
68256;SDS011;55069;51.568;4.656;2024-02-23T04:51:25;12.85;;;2.22;;
68256;SDS011;55069;51.568;4.656;2024-02-23T04:53:50;13.43;;;2.27;;
68256;SDS011;55069;51.568;4.656;2024-02-23T04:56:16;5.83;;;1.53;;
68256;SDS011;55069;51.568;4.656;2024-02-23T04:58:42;5.90;;;2.10;;
68256;SDS011;55069;51.568;4.656;2024-02-23T05:01:08;10.30;;;1.77;;
68256;SDS011;55069;51.568;4.656;2024-02-23T05:03:34;5.80;;;1.40;;
68256;SDS011;55069;51.568;4.656;2024-02-23T05:06:00;10.57;;;1.47;;
68256;SDS011;55069;51.568;4.656;2024-02-23T05:08:26;6.10;;;1.33;;
68256;SDS011;55069;51.568;4.656;2024-02-23T05:10:52;5.93;;;1.42;;
68256;SDS011;55069;51.568;4.656;2024-02-23T05:13:18;6.72;;;1.75;;
68256;SDS011;55069;51.568;4.656;2024-02-23T05:15:44;5.13;;;1.48;;
68256;SDS011;55069;51.568;4.656;2024-02-23T05:18:10;7.97;;;1.87;;
68256;SDS011;55069;51.568;4.656;2024-02-23T05:20:35;7.38;;;1.50;;
68256;SDS011;55069;51.568;4.656;2024-02-23T05:23:01;8.37;;;1.23;;
68256;SDS011;55069;51.568;4.656;2024-02-23T05:25:26;7.67;;;1.30;;
68256;SDS011;55069;51.568;4.656;2024-02-23T05:27:52;6.57;;;1.43;;
68256;SDS011;55069;51.568;4.656;2024-02-23T05:30:17;5.93;;;1.45;;
68256;SDS011;55069;51.568;4.656;2024-02-23T05:32:43;8.43;;;1.67;;
68256;SDS011;55069;51.568;4.656;2024-02-23T05:35:09;7.30;;;1.17;;
68256;SDS011;55069;51.568;4.656;2024-02-23T05:37:37;6.00;;;1.75;;
68256;SDS011;55069;51.568;4.656;2024-02-23T05:40:03;7.80;;;1.90;;
68256;SDS011;55069;51.568;4.656;2024-02-23T05:42:35;8.32;;;1.80;;
68256;SDS011;55069;51.568;4.656;2024-02-23T05:45:03;10.32;;;1.75;;
68256;SDS011;55069;51.568;4.656;2024-02-23T05:47:30;7.82;;;1.77;;
68256;SDS011;55069;51.568;4.656;2024-02-23T05:49:56;9.47;;;1.90;;
68256;SDS011;55069;51.568;4.656;2024-02-23T05:52:21;7.07;;;1.55;;
68256;SDS011;55069;51.568;4.656;2024-02-23T05:54:47;7.50;;;1.57;;
68256;SDS011;55069;51.568;4.656;2024-02-23T05:57:13;6.45;;;1.38;;
68256;SDS011;55069;51.568;4.656;2024-02-23T05:59:38;9.53;;;1.50;;
68256;SDS011;55069;51.568;4.656;2024-02-23T06:02:04;11.63;;;1.60;;
68256;SDS011;55069;51.568;4.656;2024-02-23T06:04:29;3.60;;;1.25;;
68256;SDS011;55069;51.568;4.656;2024-02-23T06:06:55;12.80;;;1.90;;
68256;SDS011;55069;51.568;4.656;2024-02-23T06:09:20;12.63;;;1.60;;
68256;SDS011;55069;51.568;4.656;2024-02-23T06:11:46;6.13;;;1.67;;
68256;SDS011;55069;51.568;4.656;2024-02-23T06:14:12;8.03;;;1.30;;
68256;SDS011;55069;51.568;4.656;2024-02-23T06:16:37;8.17;;;1.50;;
68256;SDS011;55069;51.568;4.656;2024-02-23T06:19:03;10.00;;;1.45;;
68256;SDS011;55069;51.568;4.656;2024-02-23T06:21:29;10.40;;;1.60;;
68256;SDS011;55069;51.568;4.656;2024-02-23T06:23:54;8.68;;;1.52;;
68256;SDS011;55069;51.568;4.656;2024-02-23T06:26:21;5.20;;;0.90;;
68256;SDS011;55069;51.568;4.656;2024-02-23T06:28:47;7.53;;;1.15;;
68256;SDS011;55069;51.568;4.656;2024-02-23T06:31:13;7.85;;;1.23;;
68256;SDS011;55069;51.568;4.656;2024-02-23T06:33:39;10.33;;;0.93;;
68256;SDS011;55069;51.568;4.656;2024-02-23T06:36:06;3.35;;;0.75;;
68256;SDS011;55069;51.568;4.656;2024-02-23T06:38:33;8.55;;;0.90;;
68256;SDS011;55069;51.568;4.656;2024-02-23T06:40:59;5.73;;;0.70;;
68256;SDS011;55069;51.568;4.656;2024-02-23T06:43:24;14.43;;;1.20;;
68256;SDS011;55069;51.568;4.656;2024-02-23T06:45:50;10.57;;;0.80;;
68256;SDS011;55069;51.568;4.656;2024-02-23T06:48:16;10.10;;;0.98;;
68256;SDS011;55069;51.568;4.656;2024-02-23T06:50:42;7.15;;;1.25;;
68256;SDS011;55069;51.568;4.656;2024-02-23T06:53:07;8.17;;;1.00;;
68256;SDS011;55069;51.568;4.656;2024-02-23T06:55:36;10.90;;;1.10;;
68256;SDS011;55069;51.568;4.656;2024-02-23T06:58:02;7.30;;;0.85;;
68256;SDS011;55069;51.568;4.656;2024-02-23T07:00:30;13.65;;;1.48;;
68256;SDS011;55069;51.568;4.656;2024-02-23T07:02:56;8.30;;;0.95;;
68256;SDS011;55069;51.568;4.656;2024-02-23T07:05:24;8.00;;;1.27;;
68256;SDS011;55069;51.568;4.656;2024-02-23T07:07:50;6.55;;;0.73;;
68256;SDS011;55069;51.568;4.656;2024-02-23T07:10:16;8.10;;;0.63;;
68256;SDS011;55069;51.568;4.656;2024-02-23T07:12:43;5.78;;;1.02;;
68256;SDS011;55069;51.568;4.656;2024-02-23T07:15:09;5.90;;;0.90;;
68256;SDS011;55069;51.568;4.656;2024-02-23T07:17:35;28.98;;;1.90;;
68256;SDS011;55069;51.568;4.656;2024-02-23T07:20:00;9.77;;;0.90;;
68256;SDS011;55069;51.568;4.656;2024-02-23T07:22:30;9.45;;;0.93;;
68256;SDS011;55069;51.568;4.656;2024-02-23T07:24:59;7.47;;;1.10;;
68256;SDS011;55069;51.568;4.656;2024-02-23T07:27:26;7.83;;;0.80;;
68256;SDS011;55069;51.568;4.656;2024-02-23T07:29:52;5.70;;;0.80;;
68256;SDS011;55069;51.568;4.656;2024-02-23T07:32:17;9.23;;;1.70;;
68256;SDS011;55069;51.568;4.656;2024-02-23T07:34:43;12.90;;;1.20;;
68256;SDS011;55069;51.568;4.656;2024-02-23T07:37:08;13.73;;;1.37;;
68256;SDS011;55069;51.568;4.656;2024-02-23T07:39:34;9.40;;;1.05;;
68256;SDS011;55069;51.568;4.656;2024-02-23T07:42:00;7.30;;;0.87;;
68256;SDS011;55069;51.568;4.656;2024-02-23T07:44:25;11.00;;;1.75;;
68256;SDS011;55069;51.568;4.656;2024-02-23T07:46:51;13.98;;;1.40;;
68256;SDS011;55069;51.568;4.656;2024-02-23T07:49:19;7.32;;;0.95;;
68256;SDS011;55069;51.568;4.656;2024-02-23T07:51:44;8.77;;;1.20;;
68256;SDS011;55069;51.568;4.656;2024-02-23T07:54:10;9.35;;;1.17;;
68256;SDS011;55069;51.568;4.656;2024-02-23T07:56:35;5.75;;;1.40;;
68256;SDS011;55069;51.568;4.656;2024-02-23T07:59:01;9.63;;;1.53;;
68256;SDS011;55069;51.568;4.656;2024-02-23T08:01:28;8.32;;;1.27;;
68256;SDS011;55069;51.568;4.656;2024-02-23T08:03:54;12.00;;;1.80;;
68256;SDS011;55069;51.568;4.656;2024-02-23T08:06:19;7.70;;;1.10;;
68256;SDS011;55069;51.568;4.656;2024-02-23T08:08:45;15.67;;;1.77;;
68256;SDS011;55069;51.568;4.656;2024-02-23T08:11:11;9.60;;;1.70;;
68256;SDS011;55069;51.568;4.656;2024-02-23T08:13:38;11.07;;;1.50;;
68256;SDS011;55069;51.568;4.656;2024-02-23T08:16:05;11.85;;;1.20;;
68256;SDS011;55069;51.568;4.656;2024-02-23T08:18:31;9.93;;;1.25;;
68256;SDS011;55069;51.568;4.656;2024-02-23T08:20:59;11.25;;;1.55;;
68256;SDS011;55069;51.568;4.656;2024-02-23T08:23:27;8.50;;;1.30;;
68256;SDS011;55069;51.568;4.656;2024-02-23T08:25:52;10.18;;;1.55;;
68256;SDS011;55069;51.568;4.656;2024-02-23T08:28:18;13.73;;;1.50;;
68256;SDS011;55069;51.568;4.656;2024-02-23T08:30:44;7.30;;;1.40;;
68256;SDS011;55069;51.568;4.656;2024-02-23T08:33:09;14.87;;;2.07;;
68256;SDS011;55069;51.568;4.656;2024-02-23T08:35:36;14.63;;;1.63;;
68256;SDS011;55069;51.568;4.656;2024-02-23T08:38:01;10.30;;;1.23;;
68256;SDS011;55069;51.568;4.656;2024-02-23T08:40:27;10.20;;;1.30;;
68256;SDS011;55069;51.568;4.656;2024-02-23T08:42:53;6.30;;;1.15;;
68256;SDS011;55069;51.568;4.656;2024-02-23T08:45:18;13.80;;;1.40;;
68256;SDS011;55069;51.568;4.656;2024-02-23T08:47:44;13.70;;;1.67;;
68256;SDS011;55069;51.568;4.656;2024-02-23T08:50:10;6.25;;;1.20;;
68256;SDS011;55069;51.568;4.656;2024-02-23T08:52:35;10.27;;;1.20;;
68256;SDS011;55069;51.568;4.656;2024-02-23T08:55:01;10.13;;;1.40;;
68256;SDS011;55069;51.568;4.656;2024-02-23T08:57:27;14.63;;;1.48;;
68256;SDS011;55069;51.568;4.656;2024-02-23T08:59:53;10.60;;;1.20;;
68256;SDS011;55069;51.568;4.656;2024-02-23T09:02:18;9.32;;;1.30;;
68256;SDS011;55069;51.568;4.656;2024-02-23T09:04:44;8.37;;;1.43;;
68256;SDS011;55069;51.568;4.656;2024-02-23T09:07:11;10.10;;;1.83;;
68256;SDS011;55069;51.568;4.656;2024-02-23T09:09:37;9.70;;;1.55;;
68256;SDS011;55069;51.568;4.656;2024-02-23T09:12:02;9.30;;;1.70;;
68256;SDS011;55069;51.568;4.656;2024-02-23T09:14:28;6.80;;;1.40;;
68256;SDS011;55069;51.568;4.656;2024-02-23T09:16:54;5.97;;;1.40;;
68256;SDS011;55069;51.568;4.656;2024-02-23T09:19:20;8.43;;;1.13;;
68256;SDS011;55069;51.568;4.656;2024-02-23T09:21:46;10.20;;;1.00;;
68256;SDS011;55069;51.568;4.656;2024-02-23T09:24:12;10.23;;;1.70;;
68256;SDS011;55069;51.568;4.656;2024-02-23T09:26:38;8.15;;;1.20;;
68256;SDS011;55069;51.568;4.656;2024-02-23T09:29:04;10.57;;;1.37;;
68256;SDS011;55069;51.568;4.656;2024-02-23T09:31:30;6.70;;;0.80;;
68256;SDS011;55069;51.568;4.656;2024-02-23T09:33:56;7.47;;;1.00;;
68256;SDS011;55069;51.568;4.656;2024-02-23T09:36:22;6.25;;;1.08;;
68256;SDS011;55069;51.568;4.656;2024-02-23T09:38:49;7.88;;;1.20;;
68256;SDS011;55069;51.568;4.656;2024-02-23T09:41:22;7.25;;;1.23;;
68256;SDS011;55069;51.568;4.656;2024-02-23T09:43:49;8.35;;;1.45;;
68256;SDS011;55069;51.568;4.656;2024-02-23T09:46:16;6.10;;;1.00;;
68256;SDS011;55069;51.568;4.656;2024-02-23T09:48:43;6.35;;;1.08;;
68256;SDS011;55069;51.568;4.656;2024-02-23T09:51:12;8.73;;;1.10;;
68256;SDS011;55069;51.568;4.656;2024-02-23T09:53:38;8.73;;;1.35;;
68256;SDS011;55069;51.568;4.656;2024-02-23T09:56:05;5.60;;;1.17;;
68256;SDS011;55069;51.568;4.656;2024-02-23T09:58:34;7.17;;;1.30;;
68256;SDS011;55069;51.568;4.656;2024-02-23T10:01:01;7.63;;;1.42;;
68256;SDS011;55069;51.568;4.656;2024-02-23T10:03:28;7.47;;;1.27;;
68256;SDS011;55069;51.568;4.656;2024-02-23T10:05:55;7.10;;;1.60;;
68256;SDS011;55069;51.568;4.656;2024-02-23T10:08:21;9.45;;;1.58;;
68256;SDS011;55069;51.568;4.656;2024-02-23T10:10:47;10.33;;;1.60;;
68256;SDS011;55069;51.568;4.656;2024-02-23T10:13:24;12.50;;;2.00;;
68256;SDS011;55069;51.568;4.656;2024-02-23T10:15:50;15.77;;;1.10;;
68256;SDS011;55069;51.568;4.656;2024-02-23T10:18:16;7.20;;;1.73;;
68256;SDS011;55069;51.568;4.656;2024-02-23T10:20:42;5.57;;;1.25;;
68256;SDS011;55069;51.568;4.656;2024-02-23T10:23:08;7.35;;;1.60;;
68256;SDS011;55069;51.568;4.656;2024-02-23T10:25:34;13.85;;;1.67;;
68256;SDS011;55069;51.568;4.656;2024-02-23T10:28:01;10.07;;;1.33;;
68256;SDS011;55069;51.568;4.656;2024-02-23T10:30:27;10.05;;;1.75;;
68256;SDS011;55069;51.568;4.656;2024-02-23T10:32:55;13.48;;;1.80;;
68256;SDS011;55069;51.568;4.656;2024-02-23T10:35:22;12.52;;;1.52;;
68256;SDS011;55069;51.568;4.656;2024-02-23T10:37:49;5.63;;;1.50;;
68256;SDS011;55069;51.568;4.656;2024-02-23T10:40:16;6.47;;;1.37;;
68256;SDS011;55069;51.568;4.656;2024-02-23T10:42:45;3.90;;;1.00;;
68256;SDS011;55069;51.568;4.656;2024-02-23T10:45:20;5.75;;;1.27;;
68256;SDS011;55069;51.568;4.656;2024-02-23T10:47:50;8.40;;;1.05;;
68256;SDS011;55069;51.568;4.656;2024-02-23T10:50:16;6.18;;;1.15;;
68256;SDS011;55069;51.568;4.656;2024-02-23T10:52:44;3.77;;;1.00;;
68256;SDS011;55069;51.568;4.656;2024-02-23T10:55:10;4.35;;;0.95;;
68256;SDS011;55069;51.568;4.656;2024-02-23T10:57:37;5.15;;;0.95;;
68256;SDS011;55069;51.568;4.656;2024-02-23T11:00:04;4.35;;;1.20;;
68256;SDS011;55069;51.568;4.656;2024-02-23T11:02:34;5.13;;;1.10;;
68256;SDS011;55069;51.568;4.656;2024-02-23T11:05:03;7.50;;;1.10;;
68256;SDS011;55069;51.568;4.656;2024-02-23T11:07:30;6.38;;;0.98;;
68256;SDS011;55069;51.568;4.656;2024-02-23T11:09:58;7.10;;;1.15;;
68256;SDS011;55069;51.568;4.656;2024-02-23T11:12:25;8.83;;;1.17;;
68256;SDS011;55069;51.568;4.656;2024-02-23T11:14:51;6.78;;;0.93;;
68256;SDS011;55069;51.568;4.656;2024-02-23T11:17:25;6.38;;;1.02;;
68256;SDS011;55069;51.568;4.656;2024-02-23T11:19:53;4.35;;;0.90;;
68256;SDS011;55069;51.568;4.656;2024-02-23T11:22:26;2.83;;;1.00;;
68256;SDS011;55069;51.568;4.656;2024-02-23T11:24:59;6.33;;;1.00;;
68256;SDS011;55069;51.568;4.656;2024-02-23T11:27:35;6.25;;;0.82;;
68256;SDS011;55069;51.568;4.656;2024-02-23T11:30:07;8.35;;;1.25;;
68256;SDS011;55069;51.568;4.656;2024-02-23T11:32:40;8.75;;;1.23;;
68256;SDS011;55069;51.568;4.656;2024-02-23T11:35:07;4.28;;;0.93;;
68256;SDS011;55069;51.568;4.656;2024-02-23T11:37:43;4.73;;;1.27;;
68256;SDS011;55069;51.568;4.656;2024-02-23T11:40:10;4.82;;;0.90;;
68256;SDS011;55069;51.568;4.656;2024-02-23T11:42:37;4.00;;;1.25;;
68256;SDS011;55069;51.568;4.656;2024-02-23T11:45:04;5.75;;;1.05;;
68256;SDS011;55069;51.568;4.656;2024-02-23T11:47:31;5.80;;;1.08;;
68256;SDS011;55069;51.568;4.656;2024-02-23T11:49:56;5.13;;;0.70;;
68256;SDS011;55069;51.568;4.656;2024-02-23T11:52:22;4.57;;;1.00;;
68256;SDS011;55069;51.568;4.656;2024-02-23T11:54:47;8.77;;;1.33;;
68256;SDS011;55069;51.568;4.656;2024-02-23T11:57:13;3.95;;;1.17;;
68256;SDS011;55069;51.568;4.656;2024-02-23T11:59:40;2.97;;;1.00;;
68256;SDS011;55069;51.568;4.656;2024-02-23T12:02:06;3.85;;;1.02;;
68256;SDS011;55069;51.568;4.656;2024-02-23T12:04:32;5.72;;;0.90;;
68256;SDS011;55069;51.568;4.656;2024-02-23T12:06:58;4.97;;;0.93;;
68256;SDS011;55069;51.568;4.656;2024-02-23T12:09:24;5.93;;;1.02;;
68256;SDS011;55069;51.568;4.656;2024-02-23T12:11:50;6.00;;;1.15;;
68256;SDS011;55069;51.568;4.656;2024-02-23T12:14:16;5.82;;;1.20;;
68256;SDS011;55069;51.568;4.656;2024-02-23T12:16:42;3.17;;;0.80;;
68256;SDS011;55069;51.568;4.656;2024-02-23T12:19:08;6.95;;;1.45;;
68256;SDS011;55069;51.568;4.656;2024-02-23T12:21:34;8.37;;;1.33;;
68256;SDS011;55069;51.568;4.656;2024-02-23T12:24:05;6.45;;;0.85;;
68256;SDS011;55069;51.568;4.656;2024-02-23T12:26:32;4.45;;;0.77;;
68256;SDS011;55069;51.568;4.656;2024-02-23T12:29:01;7.20;;;0.90;;
68256;SDS011;55069;51.568;4.656;2024-02-23T12:31:33;4.97;;;1.00;;
68256;SDS011;55069;51.568;4.656;2024-02-23T12:33:59;6.45;;;0.93;;
68256;SDS011;55069;51.568;4.656;2024-02-23T12:36:25;4.47;;;0.77;;
68256;SDS011;55069;51.568;4.656;2024-02-23T12:38:51;4.05;;;1.02;;
68256;SDS011;55069;51.568;4.656;2024-02-23T12:41:16;4.63;;;0.63;;
68256;SDS011;55069;51.568;4.656;2024-02-23T12:43:42;3.90;;;0.57;;
68256;SDS011;55069;51.568;4.656;2024-02-23T12:46:07;4.07;;;0.70;;
68256;SDS011;55069;51.568;4.656;2024-02-23T12:48:37;5.80;;;0.68;;
68256;SDS011;55069;51.568;4.656;2024-02-23T12:51:02;2.10;;;0.70;;
68256;SDS011;55069;51.568;4.656;2024-02-23T12:53:32;1.98;;;0.60;;
68256;SDS011;55069;51.568;4.656;2024-02-23T12:56:03;2.67;;;0.60;;
68256;SDS011;55069;51.568;4.656;2024-02-23T12:58:30;3.07;;;0.43;;
68256;SDS011;55069;51.568;4.656;2024-02-23T13:00:56;4.93;;;0.90;;
68256;SDS011;55069;51.568;4.656;2024-02-23T13:03:23;5.43;;;0.50;;
68256;SDS011;55069;51.568;4.656;2024-02-23T13:05:50;3.70;;;0.60;;
68256;SDS011;55069;51.568;4.656;2024-02-23T13:08:16;3.80;;;0.90;;
68256;SDS011;55069;51.568;4.656;2024-02-23T13:10:41;2.75;;;0.60;;
68256;SDS011;55069;51.568;4.656;2024-02-23T13:13:07;0.90;;;0.40;;
68256;SDS011;55069;51.568;4.656;2024-02-23T13:15:32;3.53;;;0.70;;
68256;SDS011;55069;51.568;4.656;2024-02-23T13:17:58;2.20;;;0.50;;
68256;SDS011;55069;51.568;4.656;2024-02-23T13:20:23;2.40;;;0.60;;
68256;SDS011;55069;51.568;4.656;2024-02-23T13:22:52;2.80;;;0.73;;
68256;SDS011;55069;51.568;4.656;2024-02-23T13:25:18;4.13;;;0.73;;
68256;SDS011;55069;51.568;4.656;2024-02-23T13:27:44;2.70;;;0.40;;
68256;SDS011;55069;51.568;4.656;2024-02-23T13:30:09;5.32;;;0.60;;
68256;SDS011;55069;51.568;4.656;2024-02-23T13:32:35;2.00;;;0.60;;
68256;SDS011;55069;51.568;4.656;2024-02-23T13:35:01;2.08;;;0.68;;
68256;SDS011;55069;51.568;4.656;2024-02-23T13:37:29;3.00;;;0.70;;
68256;SDS011;55069;51.568;4.656;2024-02-23T13:39:55;6.10;;;0.80;;
68256;SDS011;55069;51.568;4.656;2024-02-23T13:42:20;2.43;;;0.77;;
68256;SDS011;55069;51.568;4.656;2024-02-23T13:44:46;1.80;;;0.60;;
68256;SDS011;55069;51.568;4.656;2024-02-23T13:47:12;3.20;;;0.83;;
68256;SDS011;55069;51.568;4.656;2024-02-23T13:49:37;4.55;;;0.82;;
68256;SDS011;55069;51.568;4.656;2024-02-23T13:52:05;2.50;;;0.80;;
68256;SDS011;55069;51.568;4.656;2024-02-23T13:54:31;3.67;;;1.17;;
68256;SDS011;55069;51.568;4.656;2024-02-23T13:56:56;6.63;;;0.93;;
68256;SDS011;55069;51.568;4.656;2024-02-23T13:59:22;1.80;;;0.85;;
68256;SDS011;55069;51.568;4.656;2024-02-23T14:01:47;5.70;;;1.40;;
68256;SDS011;55069;51.568;4.656;2024-02-23T14:04:13;5.60;;;1.02;;
68256;SDS011;55069;51.568;4.656;2024-02-23T14:06:39;3.63;;;1.02;;
68256;SDS011;55069;51.568;4.656;2024-02-23T14:09:04;3.73;;;1.20;;
68256;SDS011;55069;51.568;4.656;2024-02-23T14:11:30;2.73;;;0.90;;
68256;SDS011;55069;51.568;4.656;2024-02-23T14:13:56;2.95;;;0.82;;
68256;SDS011;55069;51.568;4.656;2024-02-23T14:16:22;2.38;;;0.82;;
68256;SDS011;55069;51.568;4.656;2024-02-23T14:18:48;3.43;;;0.53;;
68256;SDS011;55069;51.568;4.656;2024-02-23T14:21:14;3.67;;;0.80;;
68256;SDS011;55069;51.568;4.656;2024-02-23T14:23:41;3.38;;;0.70;;
68256;SDS011;55069;51.568;4.656;2024-02-23T14:26:07;2.67;;;1.00;;
68256;SDS011;55069;51.568;4.656;2024-02-23T14:28:33;3.85;;;0.90;;
68256;SDS011;55069;51.568;4.656;2024-02-23T14:30:58;7.20;;;1.43;;
68256;SDS011;55069;51.568;4.656;2024-02-23T14:33:24;3.28;;;0.90;;
68256;SDS011;55069;51.568;4.656;2024-02-23T14:35:49;3.93;;;1.03;;
68256;SDS011;55069;51.568;4.656;2024-02-23T14:38:15;5.80;;;0.90;;